Time;durP1;ratioP1;P1;durP2;ratioP2;P2;SDS_P1;SDS_P2;PMS_P1;PMS_P2;Temp;Humidity;BMP_temperature;BMP_pressure;BME280_temperature;BME280_humidity;BME280_pressure;Samples;Min_cycle;Max_cycle;Signal;HPM_P1;HPM_P2
2024/02/21 00:00:48;;;;;;;2.43;2.23;;;4.00;99.90;;;;;;5062407;28;20302;-55
2024/02/21 00:03:13;;;;;;;3.93;2.23;;;4.00;99.90;;;;;;5062397;28;20451;-55
2024/02/21 00:05:39;;;;;;;3.27;1.90;;;4.00;99.90;;;;;;5062868;28;20442;-57
2024/02/21 00:08:05;;;;;;;2.10;1.93;;;4.10;99.90;;;;;;5062875;28;20251;-57
2024/02/21 00:10:32;;;;;;;1.93;1.83;;;4.10;99.90;;;;;;5062916;28;20230;-55
2024/02/21 00:12:59;;;;;;;3.60;2.10;;;4.10;99.90;;;;;;5062853;28;20411;-57
2024/02/21 00:15:25;;;;;;;5.90;2.97;;;4.10;99.90;;;;;;5062850;28;20659;-56
2024/02/21 00:17:51;;;;;;;2.72;1.88;;;4.20;99.90;;;;;;5062775;28;20217;-56
2024/02/21 00:20:17;;;;;;;2.67;2.40;;;4.20;99.90;;;;;;5062517;28;20663;-56
2024/02/21 00:22:43;;;;;;;4.85;2.25;;;4.20;99.90;;;;;;5061941;28;20209;-57
2024/02/21 00:25:09;;;;;;;4.13;2.10;;;4.10;99.90;;;;;;5061780;28;20526;-57
2024/02/21 00:27:35;;;;;;;2.53;1.47;;;4.10;99.90;;;;;;5062222;28;20173;-53
2024/02/21 00:30:01;;;;;;;6.50;1.87;;;4.00;99.90;;;;;;5062059;28;20499;-57
2024/02/21 00:32:27;;;;;;;1.77;1.67;;;4.00;99.90;;;;;;5062625;28;20172;-57
2024/02/21 00:34:52;;;;;;;8.90;1.60;;;4.00;99.90;;;;;;5062835;28;20479;-55
2024/02/21 00:37:18;;;;;;;2.90;2.40;;;4.20;99.90;;;;;;5062261;28;20261;-57
2024/02/21 00:39:43;;;;;;;2.03;1.63;;;4.30;99.90;;;;;;5062420;28;20217;-57
2024/02/21 00:42:09;;;;;;;6.90;1.90;;;4.30;99.90;;;;;;5062016;28;20197;-55
2024/02/21 00:44:35;;;;;;;3.33;2.63;;;4.30;99.90;;;;;;5062456;28;20677;-57
2024/02/21 00:47:00;;;;;;;5.17;3.03;;;4.20;99.90;;;;;;5061659;28;20173;-57
2024/02/21 00:49:26;;;;;;;2.53;1.60;;;4.20;99.90;;;;;;5062327;28;20316;-57
2024/02/21 00:51:51;;;;;;;1.47;1.37;;;4.20;99.90;;;;;;5062040;28;20254;-57
2024/02/21 00:54:17;;;;;;;7.97;2.60;;;4.30;99.90;;;;;;5062063;28;20177;-54
2024/02/21 00:56:43;;;;;;;10.93;3.17;;;4.30;99.90;;;;;;5061604;28;20181;-57
2024/02/21 00:59:09;;;;;;;3.65;2.17;;;4.30;99.90;;;;;;5061475;28;20513;-55
2024/02/21 01:01:34;;;;;;;1.70;1.50;;;4.20;99.90;;;;;;5061969;28;20177;-54
2024/02/21 01:04:00;;;;;;;1.63;1.50;;;4.30;99.90;;;;;;5061910;28;20694;-58
2024/02/21 01:06:26;;;;;;;2.00;1.90;;;4.30;99.90;;;;;;5061939;28;20722;-57
2024/02/21 01:08:51;;;;;;;5.85;1.63;;;4.40;99.90;;;;;;5061503;28;20845;-57
2024/02/21 01:11:17;;;;;;;1.40;1.27;;;4.30;99.90;;;;;;5061609;28;20205;-56
2024/02/21 01:13:44;;;;;;;6.80;1.40;;;4.20;99.90;;;;;;5061796;28;20647;-54
2024/02/21 01:16:09;;;;;;;2.20;1.40;;;4.30;99.90;;;;;;5061579;28;20537;-56
2024/02/21 01:18:39;;;;;;;2.93;1.53;;;4.40;99.90;;;;;;5061190;28;20711;-56
2024/02/21 01:21:06;;;;;;;10.10;1.98;;;4.40;99.90;;;;;;5061586;28;20242;-56
2024/02/21 01:23:33;;;;;;;1.63;1.30;;;4.40;99.90;;;;;;5061531;28;20209;-56
2024/02/21 01:25:59;;;;;;;2.80;1.70;;;4.30;99.90;;;;;;5061449;28;20599;-56
2024/02/21 01:28:25;;;;;;;4.17;1.97;;;4.30;99.90;;;;;;5061035;28;20260;-55
2024/02/21 01:30:51;;;;;;;1.33;1.23;;;4.40;99.90;;;;;;5061170;28;20174;-56
2024/02/21 01:33:17;;;;;;;2.33;1.50;;;4.40;99.90;;;;;;5061401;28;20174;-57
2024/02/21 01:35:42;;;;;;;4.20;2.20;;;4.50;99.90;;;;;;5061122;28;20662;-57
2024/02/21 01:38:08;;;;;;;7.40;2.60;;;4.50;99.90;;;;;;5060589;28;20177;-56
2024/02/21 01:40:33;;;;;;;5.30;2.30;;;4.50;99.90;;;;;;5061015;28;20820;-55
2024/02/21 01:42:59;;;;;;;2.77;1.83;;;4.60;99.90;;;;;;5060970;28;20622;-57
2024/02/21 01:45:25;;;;;;;7.03;2.10;;;4.50;99.90;;;;;;5059369;28;20178;-56
2024/02/21 01:47:51;;;;;;;2.83;2.53;;;4.50;99.90;;;;;;5060830;28;20664;-56
2024/02/21 01:50:17;;;;;;;10.27;2.07;;;4.40;99.90;;;;;;5060960;28;20224;-56
2024/02/21 01:52:47;;;;;;;3.92;1.90;;;4.30;99.90;;;;;;5061185;28;20415;-56
2024/02/21 01:55:14;;;;;;;1.60;1.50;;;4.30;99.90;;;;;;5060834;28;20272;-56
2024/02/21 01:57:45;;;;;;;3.30;1.90;;;4.40;99.90;;;;;;5060391;28;20239;-55
2024/02/21 02:00:13;;;;;;;2.15;1.98;;;4.40;99.90;;;;;;5060590;28;20255;-57
2024/02/21 02:02:40;;;;;;;1.60;1.50;;;4.40;99.90;;;;;;5060615;28;20211;-57
2024/02/21 02:05:08;;;;;;;1.17;1.17;;;4.50;99.90;;;;;;5060752;28;20196;-57
2024/02/21 02:07:33;;;;;;;2.40;2.30;;;4.60;99.90;;;;;;5060163;28;20242;-57
2024/02/21 02:09:59;;;;;;;2.10;2.00;;;4.70;99.90;;;;;;5060436;28;20205;-57
2024/02/21 02:12:25;;;;;;;3.20;1.92;;;4.60;99.90;;;;;;5060629;28;20188;-59
2024/02/21 02:15:04;;;;;;;3.67;1.30;;;4.50;99.90;;;;;;5060560;28;20204;-56
2024/02/21 02:17:30;;;;;;;1.55;1.45;;;4.50;99.90;;;;;;5060795;28;20878;-57
2024/02/21 02:19:56;;;;;;;2.28;1.75;;;4.50;99.90;;;;;;5060621;28;20205;-54
2024/02/21 02:22:32;;;;;;;3.13;1.87;;;4.60;99.90;;;;;;5060056;28;20220;-55
2024/02/21 02:24:58;;;;;;;5.22;2.90;;;4.50;99.90;;;;;;5060252;28;20573;-55
2024/02/21 02:27:24;;;;;;;4.72;2.13;;;4.40;99.90;;;;;;5059781;28;20169;-57
2024/02/21 02:29:50;;;;;;;3.20;1.60;;;4.50;99.90;;;;;;5060291;28;20208;-57
2024/02/21 02:32:16;;;;;;;2.30;1.37;;;4.50;99.90;;;;;;5060075;28;20169;-57
2024/02/21 02:34:41;;;;;;;2.77;2.03;;;4.60;99.90;;;;;;5060126;28;20549;-56
2024/02/21 02:37:07;;;;;;;1.57;1.40;;;4.70;99.90;;;;;;5059836;28;20769;-58
2024/02/21 02:39:32;;;;;;;7.33;1.70;;;4.70;99.90;;;;;;5059845;28;20213;-56
2024/02/21 02:41:58;;;;;;;8.90;1.90;;;4.80;99.90;;;;;;5060186;28;20271;-58
2024/02/21 02:44:24;;;;;;;2.50;1.90;;;4.80;99.90;;;;;;5058216;28;20174;-54
2024/02/21 02:46:51;;;;;;;8.83;1.83;;;4.90;99.90;;;;;;5058989;28;20415;-57
2024/02/21 02:49:17;;;;;;;2.58;2.33;;;4.80;99.90;;;;;;5060093;28;20534;-56
2024/02/21 02:51:43;;;;;;;1.80;1.53;;;4.80;99.90;;;;;;5059990;28;20203;-57
2024/02/21 02:54:09;;;;;;;2.22;1.70;;;4.90;99.90;;;;;;5059758;28;20169;-56
2024/02/21 02:56:35;;;;;;;1.92;1.50;;;4.90;99.90;;;;;;5059675;28;20174;-58
2024/02/21 02:59:01;;;;;;;5.63;2.60;;;5.00;99.90;;;;;;5059976;28;20907;-57
2024/02/21 03:01:27;;;;;;;2.03;1.60;;;4.90;99.90;;;;;;5059459;28;20669;-57
2024/02/21 03:03:53;;;;;;;2.75;2.40;;;4.80;99.90;;;;;;5059464;28;20215;-57
2024/02/21 03:06:19;;;;;;;3.28;2.53;;;4.80;99.90;;;;;;5059853;28;20521;-56
2024/02/21 03:08:44;;;;;;;5.13;2.23;;;4.80;99.90;;;;;;5059479;28;20206;-56
2024/02/21 03:11:10;;;;;;;6.10;1.97;;;4.90;99.90;;;;;;5060070;28;20174;-57
2024/02/21 03:13:36;;;;;;;5.60;2.22;;;4.90;99.90;;;;;;5060119;28;20652;-56
2024/02/21 03:16:02;;;;;;;4.83;2.53;;;5.00;99.90;;;;;;5059822;28;20192;-56
2024/02/21 03:18:28;;;;;;;7.17;2.00;;;5.00;99.90;;;;;;5059183;28;20177;-56
2024/02/21 03:20:54;;;;;;;2.20;1.63;;;4.80;99.90;;;;;;5057695;28;20425;-56
2024/02/21 03:23:19;;;;;;;2.20;1.50;;;4.70;99.90;;;;;;5059197;28;20219;-55
2024/02/21 03:25:45;;;;;;;3.87;1.80;;;4.70;99.90;;;;;;5059585;28;20434;-54
2024/02/21 03:28:11;;;;;;;2.40;1.20;;;4.60;99.90;;;;;;5059360;28;20277;-57
2024/02/21 03:30:37;;;;;;;2.43;1.73;;;4.70;99.90;;;;;;5059443;28;20193;-55
2024/02/21 03:33:03;;;;;;;1.93;1.83;;;4.70;99.90;;;;;;5059605;28;20180;-56
2024/02/21 03:35:28;;;;;;;2.55;2.00;;;4.70;99.90;;;;;;5058194;28;20216;-57
2024/02/21 03:37:54;;;;;;;2.60;2.13;;;4.70;99.90;;;;;;5059348;28;20679;-56
2024/02/21 03:40:20;;;;;;;1.87;1.70;;;4.80;99.90;;;;;;5059277;28;20216;-57
2024/02/21 03:42:45;;;;;;;6.63;1.90;;;4.80;99.90;;;;;;5058799;28;20193;-57
2024/02/21 03:45:11;;;;;;;2.73;1.90;;;4.70;99.90;;;;;;5059063;28;20179;-56
2024/02/21 03:47:37;;;;;;;3.80;2.23;;;4.70;99.90;;;;;;5058861;28;20491;-55
2024/02/21 03:50:02;;;;;;;2.60;2.33;;;4.60;99.90;;;;;;5058711;28;20200;-56
2024/02/21 03:52:28;;;;;;;5.80;3.00;;;4.60;99.90;;;;;;5059363;28;20190;-57
2024/02/21 03:54:55;;;;;;;7.83;2.80;;;4.50;99.90;;;;;;5059088;28;20262;-57
2024/02/21 03:57:21;;;;;;;3.53;2.20;;;4.50;99.90;;;;;;5058951;28;20181;-55
2024/02/21 03:59:49;;;;;;;3.10;2.45;;;4.60;99.90;;;;;;5062592;28;20676;-55
2024/02/21 04:02:15;;;;;;;3.47;1.90;;;4.50;99.90;;;;;;5062631;28;20255;-57
2024/02/21 04:04:46;;;;;;;9.97;2.80;;;4.40;99.90;;;;;;5062673;28;20178;-56
2024/02/21 04:07:12;;;;;;;1.67;1.33;;;4.40;99.90;;;;;;5062952;28;20204;-57
2024/02/21 04:09:37;;;;;;;3.55;1.77;;;4.30;99.90;;;;;;5062636;28;20752;-56
2024/02/21 04:12:03;;;;;;;2.23;1.83;;;4.30;99.90;;;;;;5062901;28;20181;-56
2024/02/21 04:14:29;;;;;;;2.17;2.07;;;4.30;99.90;;;;;;5062775;28;20652;-57
2024/02/21 04:16:55;;;;;;;1.97;1.50;;;4.20;99.90;;;;;;5062371;28;20601;-58
2024/02/21 04:19:20;;;;;;;1.87;1.77;;;4.20;99.90;;;;;;5062916;28;20193;-55
2024/02/21 04:21:46;;;;;;;1.60;1.50;;;4.30;99.90;;;;;;5062759;28;20178;-57
2024/02/21 04:24:11;;;;;;;3.43;1.63;;;4.40;99.90;;;;;;5062628;28;20412;-56
2024/02/21 04:26:37;;;;;;;1.57;1.47;;;4.50;99.90;;;;;;5062481;28;20170;-56
2024/02/21 04:29:03;;;;;;;3.93;1.67;;;4.40;99.90;;;;;;5061966;28;20207;-57
2024/02/21 04:31:28;;;;;;;1.00;1.00;;;4.30;99.90;;;;;;5062396;28;20250;-55
2024/02/21 04:33:54;;;;;;;1.70;1.40;;;4.30;99.90;;;;;;5062361;28;20706;-57
2024/02/21 04:36:19;;;;;;;1.60;1.50;;;4.30;99.90;;;;;;5062573;28;20717;-58
2024/02/21 04:38:45;;;;;;;3.63;2.70;;;4.40;99.90;;;;;;5061886;28;20248;-56
2024/02/21 04:41:11;;;;;;;1.77;1.63;;;4.40;99.90;;;;;;5062346;28;20213;-57
2024/02/21 04:43:36;;;;;;;1.50;1.40;;;4.50;99.90;;;;;;5062308;28;20210;-57
2024/02/21 04:46:02;;;;;;;5.27;1.57;;;4.40;99.90;;;;;;5061977;28;20605;-57
2024/02/21 04:48:28;;;;;;;5.30;4.90;;;4.50;99.90;;;;;;5061416;28;20173;-55
2024/02/21 04:50:53;;;;;;;7.20;4.50;;;4.50;99.90;;;;;;5061804;28;20248;-56
2024/02/21 04:53:19;;;;;;;3.00;2.23;;;4.50;99.90;;;;;;5061882;28;20181;-56
2024/02/21 04:55:44;;;;;;;6.23;2.13;;;4.40;99.90;;;;;;5061857;28;20177;-57
2024/02/21 04:58:10;;;;;;;5.30;2.83;;;4.30;99.90;;;;;;5061894;28;20698;-55
2024/02/21 05:00:36;;;;;;;2.97;1.80;;;4.20;99.90;;;;;;5061298;28;20684;-56
2024/02/21 05:03:01;;;;;;;1.70;1.60;;;4.10;99.90;;;;;;5061839;28;20280;-56
2024/02/21 05:05:27;;;;;;;2.53;2.10;;;4.10;99.90;;;;;;5061472;28;20189;-57
2024/02/21 05:07:52;;;;;;;4.23;2.33;;;4.10;99.90;;;;;;5060625;28;20178;-57
2024/02/21 05:10:19;;;;;;;2.10;1.90;;;4.00;99.90;;;;;;5060379;28;20687;-57
2024/02/21 05:12:45;;;;;;;3.33;1.20;;;4.00;99.90;;;;;;5061591;28;20186;-57
2024/02/21 05:15:10;;;;;;;3.10;1.60;;;4.20;99.90;;;;;;5061499;28;20631;-57
2024/02/21 05:17:36;;;;;;;1.53;1.10;;;4.10;99.90;;;;;;5060983;28;20182;-57
2024/02/21 05:20:02;;;;;;;4.57;2.43;;;4.10;99.90;;;;;;5061082;28;20189;-56
2024/02/21 05:22:27;;;;;;;2.43;1.43;;;4.00;99.90;;;;;;5061476;28;20280;-55
2024/02/21 05:24:53;;;;;;;4.20;1.50;;;4.00;99.90;;;;;;5061125;28;20415;-56
2024/02/21 05:27:19;;;;;;;3.13;1.27;;;4.00;99.90;;;;;;5060754;28;20185;-56
2024/02/21 05:29:44;;;;;;;2.40;1.67;;;4.00;99.90;;;;;;5060728;28;20561;-55
2024/02/21 05:32:10;;;;;;;3.80;1.33;;;4.00;99.90;;;;;;5061138;28;20174;-55
2024/02/21 05:34:35;;;;;;;2.20;1.33;;;3.90;99.90;;;;;;5061447;28;20178;-54
2024/02/21 05:37:01;;;;;;;2.57;1.33;;;3.80;99.90;;;;;;5061118;28;20178;-57
2024/02/21 05:39:29;;;;;;;7.47;1.20;;;3.70;99.90;;;;;;5061019;28;20217;-55
2024/02/21 05:41:54;;;;;;;5.80;1.55;;;3.80;99.90;;;;;;5060669;28;20172;-56
2024/02/21 05:44:22;;;;;;;2.27;1.70;;;3.80;99.90;;;;;;5061081;28;20544;-56
2024/02/21 05:46:47;;;;;;;3.95;1.75;;;3.70;99.90;;;;;;5060862;28;20649;-57
2024/02/21 05:49:13;;;;;;;0.83;0.80;;;3.70;99.90;;;;;;5060574;28;20280;-57
2024/02/21 05:51:39;;;;;;;4.07;1.05;;;3.70;99.90;;;;;;5060722;28;20786;-55
2024/02/21 05:54:05;;;;;;;2.03;1.23;;;3.70;99.90;;;;;;5060937;28;20201;-55
2024/02/21 05:56:30;;;;;;;1.80;1.63;;;3.70;99.90;;;;;;5060879;28;20173;-55
2024/02/21 05:58:56;;;;;;;1.10;1.10;;;3.60;99.90;;;;;;5060202;28;20201;-57
2024/02/21 06:01:22;;;;;;;2.57;1.40;;;3.60;99.90;;;;;;5060182;28;20998;-57
2024/02/21 06:03:48;;;;;;;2.50;1.57;;;3.60;99.90;;;;;;5060638;28;20205;-55
2024/02/21 06:06:14;;;;;;;5.07;1.60;;;3.60;99.90;;;;;;5061155;28;20245;-56
2024/02/21 06:08:40;;;;;;;4.30;1.48;;;3.50;99.90;;;;;;5060216;28;20468;-60
2024/02/21 06:11:06;;;;;;;4.43;1.63;;;3.50;99.90;;;;;;5060427;28;20254;-58
2024/02/21 06:13:32;;;;;;;4.57;1.90;;;3.60;99.90;;;;;;5060833;28;20329;-56
2024/02/21 06:15:57;;;;;;;2.57;1.77;;;3.60;99.90;;;;;;5060949;28;20186;-57
2024/02/21 06:18:23;;;;;;;1.87;1.03;;;3.60;99.90;;;;;;5059958;28;20958;-56
2024/02/21 06:20:48;;;;;;;1.70;1.60;;;3.60;99.90;;;;;;5060374;28;20975;-57
2024/02/21 06:23:16;;;;;;;4.63;1.67;;;3.60;99.90;;;;;;5060246;28;20204;-57
2024/02/21 06:25:42;;;;;;;1.77;1.50;;;3.70;99.90;;;;;;5060121;28;20177;-58
2024/02/21 06:28:08;;;;;;;2.28;1.52;;;3.70;99.90;;;;;;5060042;28;20169;-58
2024/02/21 06:30:34;;;;;;;5.43;1.60;;;3.70;99.90;;;;;;5060451;28;20197;-56
2024/02/21 06:33:02;;;;;;;1.77;1.33;;;3.70;99.90;;;;;;5042035;28;20452;-57
2024/02/21 06:35:28;;;;;;;4.20;1.98;;;3.70;99.90;;;;;;5060462;28;20186;-57
2024/02/21 06:37:53;;;;;;;3.00;2.40;;;3.80;99.90;;;;;;5060247;28;20893;-58
2024/02/21 06:40:22;;;;;;;2.77;2.27;;;3.70;99.90;;;;;;5060186;28;21211;-60
2024/02/21 06:42:48;;;;;;;2.35;1.60;;;3.70;99.90;;;;;;5059677;28;20639;-60
2024/02/21 06:45:14;;;;;;;2.75;1.65;;;3.70;99.90;;;;;;5060298;28;20188;-60
2024/02/21 06:47:40;;;;;;;5.40;2.50;;;3.60;99.90;;;;;;5059923;28;20171;-60
2024/02/21 06:50:06;;;;;;;4.80;2.00;;;3.60;99.90;;;;;;5060094;28;20702;-60
2024/02/21 06:52:31;;;;;;;12.03;2.90;;;3.70;99.90;;;;;;5060037;28;20254;-60
2024/02/21 06:54:57;;;;;;;4.80;2.30;;;3.70;99.90;;;;;;5060110;28;20415;-60
2024/02/21 06:57:23;;;;;;;4.53;2.20;;;3.80;99.90;;;;;;5059075;28;20181;-60
2024/02/21 06:59:49;;;;;;;3.00;2.40;;;3.90;99.90;;;;;;5059946;28;20204;-60
2024/02/21 07:02:14;;;;;;;4.53;2.63;;;4.00;99.90;;;;;;5060113;28;20474;-60
2024/02/21 07:04:40;;;;;;;5.43;2.73;;;4.00;99.90;;;;;;5059972;28;20826;-60
2024/02/21 07:07:06;;;;;;;4.53;2.80;;;4.10;99.90;;;;;;5059883;28;20169;-60
2024/02/21 07:09:31;;;;;;;3.30;2.27;;;4.20;99.90;;;;;;5059420;28;20189;-60
2024/02/21 07:12:00;;;;;;;12.60;4.10;;;4.30;99.90;;;;;;5059759;28;20227;-60
2024/02/21 07:14:28;;;;;;;9.73;1.95;;;4.60;99.90;;;;;;5059766;28;20435;-60
2024/02/21 07:16:54;;;;;;;2.35;2.25;;;4.70;99.90;;;;;;5059331;28;20192;-60
2024/02/21 07:19:20;;;;;;;8.32;2.72;;;4.90;99.90;;;;;;5059563;28;20198;-60
2024/02/21 07:21:45;;;;;;;3.70;2.17;;;5.00;99.80;;;;;;5059921;28;20283;-60
2024/02/21 07:24:11;;;;;;;3.77;3.33;;;5.10;99.90;;;;;;5059751;28;20913;-60
2024/02/21 07:26:37;;;;;;;2.45;2.03;;;5.20;99.90;;;;;;5068431;28;20188;-60
2024/02/21 07:29:02;;;;;;;5.47;1.63;;;5.30;99.90;;;;;;5069792;28;20190;-61
2024/02/21 07:31:28;;;;;;;9.33;1.73;;;5.50;99.90;;;;;;5071056;28;20169;-60
2024/02/21 07:33:54;;;;;;;4.23;2.40;;;5.60;99.70;;;;;;5074190;28;20647;-61
2024/02/21 07:36:32;;;;;;;9.43;2.03;;;5.80;99.50;;;;;;5075277;28;20420;-61
2024/02/21 07:38:58;;;;;;;8.18;3.72;;;5.90;99.60;;;;;;5074992;28;20209;-61
2024/02/21 07:41:30;;;;;;;9.03;6.00;;;6.00;99.70;;;;;;5074032;28;20173;-61
2024/02/21 07:43:55;;;;;;;12.73;5.63;;;6.30;99.70;;;;;;5073851;28;20454;-61
2024/02/21 07:46:21;;;;;;;5.07;2.50;;;6.50;99.40;;;;;;5074850;28;20217;-61
2024/02/21 07:48:47;;;;;;;4.43;2.50;;;6.70;99.30;;;;;;5074531;28;20565;-60
2024/02/21 07:51:12;;;;;;;9.93;4.23;;;6.90;98.90;;;;;;5074929;28;20545;-61
2024/02/21 07:53:48;;;;;;;9.10;4.30;;;7.20;98.80;;;;;;5074823;28;20615;-61
2024/02/21 07:56:15;;;;;;;6.43;2.85;;;7.50;98.90;;;;;;5074865;28;20180;-61
2024/02/21 07:58:41;;;;;;;5.50;2.80;;;7.90;98.70;;;;;;5074437;28;20200;-61
2024/02/21 08:01:08;;;;;;;5.40;3.63;;;8.30;98.30;;;;;;5074574;28;20280;-61
2024/02/21 08:03:33;;;;;;;6.40;4.97;;;8.70;97.60;;;;;;5074574;28;20205;-61
2024/02/21 08:05:59;;;;;;;9.57;4.63;;;9.00;96.80;;;;;;5074384;28;20178;-61
2024/02/21 08:08:26;;;;;;;5.90;4.43;;;9.20;96.30;;;;;;5074114;28;20161;-61
2024/02/21 08:10:52;;;;;;;5.22;3.85;;;9.30;95.70;;;;;;5074345;28;20165;-61
2024/02/21 08:13:17;;;;;;;5.60;4.20;;;9.40;95.30;;;;;;5074325;28;20176;-61
2024/02/21 08:15:43;;;;;;;10.73;4.27;;;9.40;95.20;;;;;;5074375;28;20643;-61
2024/02/21 08:18:09;;;;;;;4.73;3.17;;;9.40;95.40;;;;;;5074030;28;20260;-61
2024/02/21 08:20:35;;;;;;;4.40;3.20;;;9.50;95.10;;;;;;5074115;28;20200;-61
2024/02/21 08:23:01;;;;;;;4.13;3.53;;;9.60;94.50;;;;;;5074106;28;20582;-61
2024/02/21 08:25:27;;;;;;;6.53;4.23;;;9.60;94.50;;;;;;5074117;28;20492;-62
2024/02/21 08:27:57;;;;;;;5.97;3.50;;;9.70;94.80;;;;;;5074004;28;20434;-61
2024/02/21 08:30:23;;;;;;;8.70;4.27;;;9.90;94.70;;;;;;5073919;28;20501;-61
2024/02/21 08:32:48;;;;;;;6.90;3.67;;;10.20;94.10;;;;;;5074065;28;20893;-61
2024/02/21 08:35:14;;;;;;;4.07;3.30;;;10.40;93.60;;;;;;5073917;28;20165;-61
2024/02/21 08:37:40;;;;;;;3.80;2.90;;;10.70;93.00;;;;;;5073613;28;20178;-61
2024/02/21 08:40:08;;;;;;;5.03;3.90;;;11.00;92.90;;;;;;5073768;28;20205;-61
2024/02/21 08:42:36;;;;;;;3.90;3.40;;;11.40;92.70;;;;;;5073827;28;20254;-61
2024/02/21 08:45:05;;;;;;;6.53;4.47;;;11.80;91.60;;;;;;5072557;28;20481;-62
2024/02/21 08:47:30;;;;;;;6.13;4.53;;;12.30;91.40;;;;;;5073531;28;20912;-61
2024/02/21 08:49:56;;;;;;;7.23;4.07;;;12.70;90.70;;;;;;5073491;28;20493;-61
2024/02/21 08:52:22;;;;;;;4.80;4.40;;;13.00;89.70;;;;;;5073730;28;20176;-62
2024/02/21 08:54:47;;;;;;;7.77;5.83;;;13.10;89.60;;;;;;5073585;28;20173;-62
2024/02/21 08:57:15;;;;;;;13.30;8.50;;;13.20;87.10;;;;;;5073337;28;20177;-62
2024/02/21 08:59:41;;;;;;;25.50;11.77;;;13.20;85.00;;;;;;5073478;28;20200;-62
2024/02/21 09:02:08;;;;;;;21.20;14.53;;;13.20;86.20;;;;;;5072508;28;20455;-60
2024/02/21 09:04:34;;;;;;;21.50;14.23;;;13.30;85.10;;;;;;5073098;28;20552;-61
2024/02/21 09:07:00;;;;;;;29.57;16.83;;;13.40;85.80;;;;;;5072237;28;20404;-61
2024/02/21 09:09:25;;;;;;;17.03;11.37;;;13.50;85.70;;;;;;5072346;28;20193;-60
2024/02/21 09:11:51;;;;;;;24.17;13.03;;;13.60;84.70;;;;;;5073512;28;20173;-60
2024/02/21 09:14:17;;;;;;;17.37;11.00;;;13.80;84.50;;;;;;5073279;28;20169;-61
2024/02/21 09:16:43;;;;;;;23.93;15.60;;;13.90;83.60;;;;;;5073240;28;20166;-60
2024/02/21 09:19:10;;;;;;;20.50;11.27;;;13.90;83.00;;;;;;5072801;28;20422;-60
2024/02/21 09:21:37;;;;;;;23.70;12.50;;;14.10;83.20;;;;;;5072958;28;20492;-59
2024/02/21 09:24:03;;;;;;;18.20;10.60;;;14.20;83.30;;;;;;5073037;28;20485;-59
2024/02/21 09:26:28;;;;;;;15.53;10.07;;;14.30;83.10;;;;;;5072829;28;20886;-61
2024/02/21 09:28:54;;;;;;;10.40;7.30;;;14.50;82.30;;;;;;5072648;28;20214;-60
2024/02/21 09:31:19;;;;;;;8.67;7.00;;;14.60;81.10;;;;;;5072874;28;20174;-60
2024/02/21 09:33:45;;;;;;;8.17;6.77;;;14.70;79.70;;;;;;5072808;28;20212;-60
2024/02/21 09:36:11;;;;;;;13.60;5.57;;;15.00;78.60;;;;;;5072741;28;20727;-60
2024/02/21 09:38:37;;;;;;;7.43;4.90;;;15.40;77.00;;;;;;5071684;28;20203;-60
2024/02/21 09:41:21;;;;;;;7.90;5.40;;;15.70;74.20;;;;;;5072624;28;20664;-60
2024/02/21 09:43:50;;;;;;;6.70;3.70;;;15.70;73.40;;;;;;5072860;28;20712;-61
2024/02/21 09:46:21;;;;;;;4.30;3.70;;;16.00;73.00;;;;;;5072570;28;20407;-61
2024/02/21 09:49:05;;;;;;;6.33;4.93;;;16.30;71.50;;;;;;5072436;28;20423;-61
2024/02/21 09:51:34;;;;;;;4.43;3.90;;;16.70;69.80;;;;;;5072721;28;20855;-60
2024/02/21 09:54:00;;;;;;;4.80;3.57;;;17.10;66.80;;;;;;5072596;28;20403;-60
2024/02/21 09:56:26;;;;;;;2.27;2.07;;;17.30;66.50;;;;;;5071852;28;20410;-61
2024/02/21 09:58:51;;;;;;;3.03;2.10;;;17.40;66.10;;;;;;5071880;28;20231;-60
2024/02/21 10:01:17;;;;;;;1.70;1.27;;;17.30;63.90;;;;;;5071444;28;20415;-60
2024/02/21 10:03:43;;;;;;;4.43;2.57;;;17.00;62.40;;;;;;5072417;28;20285;-61
2024/02/21 10:06:09;;;;;;;2.60;1.93;;;16.50;59.10;;;;;;5072264;28;20541;-61
2024/02/21 10:08:35;;;;;;;2.73;1.80;;;16.30;59.70;;;;;;5071975;28;20423;-61
2024/02/21 10:11:02;;;;;;;3.33;1.50;;;16.10;58.00;;;;;;5072128;28;20164;-60
2024/02/21 10:13:29;;;;;;;1.37;1.03;;;15.90;54.90;;;;;;5071940;28;20207;-60
2024/02/21 10:16:08;;;;;;;1.07;0.83;;;15.80;54.50;;;;;;5072097;28;20786;-60
2024/02/21 10:18:34;;;;;;;3.00;1.07;;;15.80;53.60;;;;;;5071685;28;20521;-61
2024/02/21 10:21:09;;;;;;;4.17;1.57;;;15.70;52.70;;;;;;5071983;28;20406;-61
2024/02/21 10:23:42;;;;;;;1.03;0.70;;;15.80;52.80;;;;;;5071711;28;20809;-60
2024/02/21 10:26:10;;;;;;;0.60;0.60;;;16.00;52.70;;;;;;5072981;28;20413;-60
2024/02/21 10:28:42;;;;;;;1.00;0.90;;;15.80;52.20;;;;;;5062023;28;20437;-60
2024/02/21 10:31:09;;;;;;;0.53;0.50;;;15.60;51.60;;;;;;5081808;28;20408;-60
2024/02/21 10:33:35;;;;;;;1.20;0.70;;;15.50;51.80;;;;;;5082207;28;20508;-60
2024/02/21 10:36:09;;;;;;;0.90;0.70;;;15.40;51.60;;;;;;5080299;28;20492;-60
2024/02/21 10:38:38;;;;;;;2.20;0.63;;;15.20;51.60;;;;;;5091424;28;20755;-60
2024/02/21 10:41:07;;;;;;;1.37;0.70;;;14.80;51.40;;;;;;5092085;28;20439;-60
2024/02/21 10:43:39;;;;;;;0.90;0.70;;;14.50;51.70;;;;;;5091753;28;20449;-60
2024/02/21 10:46:09;;;;;;;4.63;1.40;;;14.30;52.00;;;;;;5092044;28;20564;-60
2024/02/21 10:49:16;;;;;;;2.50;1.27;;;14.20;52.80;;;;;;5091374;28;20454;-60
2024/02/21 10:51:44;;;;;;;1.13;0.90;;;14.40;52.10;;;;;;5091032;28;20415;-60
2024/02/21 10:54:19;;;;;;;1.33;0.63;;;14.70;52.10;;;;;;5091826;28;20403;-60
2024/02/21 10:56:45;;;;;;;1.37;0.63;;;14.70;52.00;;;;;;5091793;28;20406;-60
2024/02/21 10:59:13;;;;;;;0.73;0.73;;;14.70;51.50;;;;;;5091265;28;20426;-60
2024/02/21 11:01:39;;;;;;;0.70;0.60;;;14.50;51.40;;;;;;5091764;28;20517;-60
2024/02/21 11:04:06;;;;;;;0.50;0.50;;;14.60;50.70;;;;;;5091650;28;20541;-60
2024/02/21 11:06:34;;;;;;;1.00;0.70;;;14.50;49.80;;;;;;5091349;28;20229;-59
2024/02/21 11:09:05;;;;;;;0.70;0.67;;;14.20;50.00;;;;;;5090637;28;20512;-60
2024/02/21 11:11:46;;;;;;;0.60;0.60;;;14.00;50.30;;;;;;5091358;28;20431;-60
2024/02/21 11:14:19;;;;;;;3.17;0.60;;;13.90;51.40;;;;;;5091680;28;20500;-60
2024/02/21 11:16:45;;;;;;;1.00;1.00;;;13.80;51.40;;;;;;5091534;28;20416;-60
2024/02/21 11:19:23;;;;;;;0.60;0.60;;;13.70;51.60;;;;;;5091185;28;20437;-60
2024/02/21 11:21:50;;;;;;;0.77;0.53;;;13.50;51.40;;;;;;5091345;28;20491;-60
2024/02/21 11:24:32;;;;;;;2.40;0.60;;;13.30;51.80;;;;;;5091414;28;20493;-60
2024/02/21 11:27:14;;;;;;;0.97;0.60;;;13.20;52.30;;;;;;5091073;28;20409;-59
2024/02/21 11:29:41;;;;;;;2.10;0.80;;;13.20;51.70;;;;;;5091276;28;20437;-60
2024/02/21 11:32:16;;;;;;;1.27;0.60;;;13.20;52.10;;;;;;5091439;28;20831;-60
2024/02/21 11:34:52;;;;;;;4.40;0.70;;;13.20;51.40;;;;;;5091323;28;20400;-60
2024/02/21 11:37:18;;;;;;;0.87;0.83;;;13.20;51.20;;;;;;5091085;28;20411;-60
2024/02/21 11:39:43;;;;;;;0.60;0.60;;;13.30;51.20;;;;;;5091102;28;20552;-60
2024/02/21 11:42:09;;;;;;;1.57;0.63;;;13.30;50.80;;;;;;5091272;28;20208;-60
2024/02/21 11:44:39;;;;;;;1.67;0.63;;;13.40;52.00;;;;;;5091191;28;20173;-60
2024/02/21 11:47:07;;;;;;;0.70;0.70;;;13.40;50.80;;;;;;5090810;28;20422;-60
2024/02/21 11:49:40;;;;;;;0.70;0.70;;;13.10;49.90;;;;;;5091160;28;20427;-60
2024/02/21 11:52:06;;;;;;;0.60;0.60;;;13.00;50.10;;;;;;5091313;28;20415;-60
2024/02/21 11:54:33;;;;;;;0.60;0.60;;;12.80;50.70;;;;;;5091182;28;20439;-60
2024/02/21 11:57:00;;;;;;;1.07;0.90;;;12.70;50.70;;;;;;5090845;28;20416;-60
2024/02/21 11:59:26;;;;;;;0.93;0.80;;;12.50;51.00;;;;;;5090882;28;20509;-60
2024/02/21 12:01:53;;;;;;;0.50;0.50;;;12.40;50.10;;;;;;5091302;28;20403;-59
2024/02/21 12:04:20;;;;;;;0.63;0.63;;;12.40;50.00;;;;;;5091143;28;20407;-60
2024/02/21 12:06:46;;;;;;;0.60;0.57;;;12.40;49.70;;;;;;5091084;28;20414;-60
2024/02/21 12:09:18;;;;;;;0.60;0.60;;;12.30;49.20;;;;;;5078539;28;20438;-60
2024/02/21 12:11:45;;;;;;;1.13;0.77;;;12.20;49.50;;;;;;5070752;28;20506;-60
2024/02/21 12:14:15;;;;;;;0.60;0.53;;;12.00;49.40;;;;;;5070614;28;20927;-60
2024/02/21 12:16:42;;;;;;;0.40;0.40;;;11.90;48.30;;;;;;5070484;28;20400;-60
2024/02/21 12:19:08;;;;;;;0.90;0.70;;;11.80;48.40;;;;;;5071888;28;20466;-59
2024/02/21 12:21:36;;;;;;;0.60;0.50;;;11.80;48.50;;;;;;5074126;28;20913;-59
2024/02/21 12:24:14;;;;;;;0.40;0.40;;;11.80;48.20;;;;;;5074167;28;20833;-60
2024/02/21 12:26:40;;;;;;;0.80;0.70;;;12.00;47.20;;;;;;5073940;28;20819;-60
2024/02/21 12:29:09;;;;;;;0.50;0.50;;;12.20;46.80;;;;;;5073877;28;20431;-60
2024/02/21 12:31:35;;;;;;;0.97;0.70;;;12.30;45.50;;;;;;5074091;28;20404;-60
2024/02/21 12:34:01;;;;;;;0.60;0.60;;;12.40;45.10;;;;;;5074201;28;20411;-60
2024/02/21 12:36:27;;;;;;;0.43;0.43;;;12.50;44.30;;;;;;5073871;28;20776;-59
2024/02/21 12:38:52;;;;;;;0.50;0.50;;;12.60;44.50;;;;;;5073183;28;20216;-59
2024/02/21 12:41:18;;;;;;;0.60;0.40;;;12.70;44.90;;;;;;5073789;28;20213;-60
2024/02/21 12:43:43;;;;;;;0.70;0.70;;;12.70;44.10;;;;;;5073854;28;20204;-60
2024/02/21 12:46:09;;;;;;;0.67;0.50;;;12.60;45.60;;;;;;5073999;28;20257;-60
2024/02/21 12:48:35;;;;;;;0.60;0.50;;;12.80;44.60;;;;;;5073577;28;20194;-60
2024/02/21 12:51:01;;;;;;;0.70;0.60;;;13.00;44.40;;;;;;5073639;28;20412;-60